sensor_id;sensor_type;location;lat;lon;timestamp;P1;durP1;ratioP1;P2;durP2;ratioP2
56893;SDS011;43392;50.078;13.704;2023-02-26T00:01:26;1.47;;;1.00;;
56893;SDS011;43392;50.078;13.704;2023-02-26T00:03:54;1.48;;;0.98;;
56893;SDS011;43392;50.078;13.704;2023-02-26T00:06:24;1.17;;;1.07;;
56893;SDS011;43392;50.078;13.704;2023-02-26T00:08:51;2.43;;;1.17;;
56893;SDS011;43392;50.078;13.704;2023-02-26T00:11:18;2.37;;;1.10;;
56893;SDS011;43392;50.078;13.704;2023-02-26T00:13:45;1.87;;;1.20;;
56893;SDS011;43392;50.078;13.704;2023-02-26T00:16:13;1.43;;;1.00;;
56893;SDS011;43392;50.078;13.704;2023-02-26T00:18:51;2.73;;;1.20;;
56893;SDS011;43392;50.078;13.704;2023-02-26T00:21:18;1.57;;;1.07;;
56893;SDS011;43392;50.078;13.704;2023-02-26T00:23:47;2.57;;;1.27;;
56893;SDS011;43392;50.078;13.704;2023-02-26T00:26:14;1.50;;;1.00;;
56893;SDS011;43392;50.078;13.704;2023-02-26T00:28:41;2.07;;;1.20;;
56893;SDS011;43392;50.078;13.704;2023-02-26T00:31:08;2.90;;;1.30;;
56893;SDS011;43392;50.078;13.704;2023-02-26T00:33:36;1.70;;;1.20;;
56893;SDS011;43392;50.078;13.704;2023-02-26T00:36:07;2.93;;;1.27;;
56893;SDS011;43392;50.078;13.704;2023-02-26T00:38:46;1.57;;;1.00;;
56893;SDS011;43392;50.078;13.704;2023-02-26T00:41:20;2.43;;;1.27;;
56893;SDS011;43392;50.078;13.704;2023-02-26T00:43:47;1.67;;;1.00;;
56893;SDS011;43392;50.078;13.704;2023-02-26T00:46:16;1.87;;;1.20;;
56893;SDS011;43392;50.078;13.704;2023-02-26T00:48:49;1.60;;;1.10;;
56893;SDS011;43392;50.078;13.704;2023-02-26T00:51:22;1.73;;;1.00;;
56893;SDS011;43392;50.078;13.704;2023-02-26T00:53:57;2.60;;;1.30;;
56893;SDS011;43392;50.078;13.704;2023-02-26T00:56:28;3.27;;;1.27;;
56893;SDS011;43392;50.078;13.704;2023-02-26T00:58:56;2.27;;;1.10;;
56893;SDS011;43392;50.078;13.704;2023-02-26T01:01:23;2.00;;;1.13;;
56893;SDS011;43392;50.078;13.704;2023-02-26T01:03:50;4.23;;;1.10;;
56893;SDS011;43392;50.078;13.704;2023-02-26T01:06:17;1.47;;;1.10;;
56893;SDS011;43392;50.078;13.704;2023-02-26T01:08:50;2.30;;;1.30;;
56893;SDS011;43392;50.078;13.704;2023-02-26T01:11:20;1.30;;;1.20;;
56893;SDS011;43392;50.078;13.704;2023-02-26T01:13:47;1.80;;;1.10;;
56893;SDS011;43392;50.078;13.704;2023-02-26T01:16:16;1.47;;;1.00;;
56893;SDS011;43392;50.078;13.704;2023-02-26T01:18:47;2.53;;;1.00;;
56893;SDS011;43392;50.078;13.704;2023-02-26T01:21:20;2.33;;;1.20;;
56893;SDS011;43392;50.078;13.704;2023-02-26T01:23:52;4.67;;;1.23;;
56893;SDS011;43392;50.078;13.704;2023-02-26T01:26:20;1.10;;;0.93;;
56893;SDS011;43392;50.078;13.704;2023-02-26T01:28:49;1.08;;;0.98;;
56893;SDS011;43392;50.078;13.704;2023-02-26T01:31:18;2.93;;;1.20;;
56893;SDS011;43392;50.078;13.704;2023-02-26T01:33:58;3.42;;;1.10;;
56893;SDS011;43392;50.078;13.704;2023-02-26T01:39:01;2.35;;;1.38;;
56893;SDS011;43392;50.078;13.704;2023-02-26T01:41:32;4.10;;;1.90;;
56893;SDS011;43392;50.078;13.704;2023-02-26T01:44:09;6.20;;;2.43;;
56893;SDS011;43392;50.078;13.704;2023-02-26T01:46:44;6.53;;;2.90;;
56893;SDS011;43392;50.078;13.704;2023-02-26T01:49:22;7.03;;;2.40;;
56893;SDS011;43392;50.078;13.704;2023-02-26T01:51:50;5.17;;;2.37;;
56893;SDS011;43392;50.078;13.704;2023-02-26T01:54:20;5.70;;;2.40;;
56893;SDS011;43392;50.078;13.704;2023-02-26T01:56:49;4.70;;;2.55;;
56893;SDS011;43392;50.078;13.704;2023-02-26T01:59:19;6.63;;;2.10;;
56893;SDS011;43392;50.078;13.704;2023-02-26T02:01:48;4.93;;;2.30;;
56893;SDS011;43392;50.078;13.704;2023-02-26T02:04:16;4.70;;;2.00;;
56893;SDS011;43392;50.078;13.704;2023-02-26T02:06:43;3.87;;;2.03;;
56893;SDS011;43392;50.078;13.704;2023-02-26T02:09:11;4.20;;;1.77;;
56893;SDS011;43392;50.078;13.704;2023-02-26T02:11:42;7.60;;;2.10;;
56893;SDS011;43392;50.078;13.704;2023-02-26T02:14:35;4.23;;;2.20;;
56893;SDS011;43392;50.078;13.704;2023-02-26T02:17:09;5.07;;;2.40;;
56893;SDS011;43392;50.078;13.704;2023-02-26T02:22:50;8.27;;;3.60;;
56893;SDS011;43392;50.078;13.704;2023-02-26T02:28:32;7.60;;;3.37;;
56893;SDS011;43392;50.078;13.704;2023-02-26T02:31:07;11.83;;;5.70;;
56893;SDS011;43392;50.078;13.704;2023-02-26T02:33:40;4.67;;;2.63;;
56893;SDS011;43392;50.078;13.704;2023-02-26T02:36:13;7.03;;;3.63;;
56893;SDS011;43392;50.078;13.704;2023-02-26T02:38:46;5.70;;;2.80;;
56893;SDS011;43392;50.078;13.704;2023-02-26T02:41:18;6.20;;;3.30;;
56893;SDS011;43392;50.078;13.704;2023-02-26T02:43:47;9.90;;;4.10;;
56893;SDS011;43392;50.078;13.704;2023-02-26T02:46:18;6.53;;;3.03;;
56893;SDS011;43392;50.078;13.704;2023-02-26T02:48:49;7.17;;;2.10;;
56893;SDS011;43392;50.078;13.704;2023-02-26T02:51:23;3.57;;;1.80;;
56893;SDS011;43392;50.078;13.704;2023-02-26T02:53:53;3.07;;;1.90;;
56893;SDS011;43392;50.078;13.704;2023-02-26T02:56:26;6.03;;;2.70;;
56893;SDS011;43392;50.078;13.704;2023-02-26T02:58:55;5.67;;;3.30;;
56893;SDS011;43392;50.078;13.704;2023-02-26T03:01:30;3.33;;;1.87;;
56893;SDS011;43392;50.078;13.704;2023-02-26T03:04:01;8.40;;;3.60;;
56893;SDS011;43392;50.078;13.704;2023-02-26T03:06:32;8.37;;;3.60;;
56893;SDS011;43392;50.078;13.704;2023-02-26T03:08:59;7.37;;;3.93;;
56893;SDS011;43392;50.078;13.704;2023-02-26T03:11:28;6.47;;;3.70;;
56893;SDS011;43392;50.078;13.704;2023-02-26T03:13:54;7.47;;;3.80;;
56893;SDS011;43392;50.078;13.704;2023-02-26T03:16:28;6.60;;;3.17;;
56893;SDS011;43392;50.078;13.704;2023-02-26T03:19:07;4.10;;;2.67;;
56893;SDS011;43392;50.078;13.704;2023-02-26T03:21:45;7.53;;;3.20;;
56893;SDS011;43392;50.078;13.704;2023-02-26T03:24:21;7.23;;;4.03;;
56893;SDS011;43392;50.078;13.704;2023-02-26T03:26:53;5.80;;;3.40;;
56893;SDS011;43392;50.078;13.704;2023-02-26T03:29:25;6.45;;;3.47;;
56893;SDS011;43392;50.078;13.704;2023-02-26T03:32:00;5.13;;;2.77;;
56893;SDS011;43392;50.078;13.704;2023-02-26T03:34:34;3.63;;;2.10;;
56893;SDS011;43392;50.078;13.704;2023-02-26T03:37:07;5.77;;;2.90;;
56893;SDS011;43392;50.078;13.704;2023-02-26T03:39:40;7.50;;;4.23;;
56893;SDS011;43392;50.078;13.704;2023-02-26T03:42:16;7.00;;;4.07;;
56893;SDS011;43392;50.078;13.704;2023-02-26T03:44:49;6.80;;;3.70;;
56893;SDS011;43392;50.078;13.704;2023-02-26T03:47:19;8.02;;;4.65;;
56893;SDS011;43392;50.078;13.704;2023-02-26T03:49:48;5.37;;;3.00;;
56893;SDS011;43392;50.078;13.704;2023-02-26T03:52:18;3.38;;;1.88;;
56893;SDS011;43392;50.078;13.704;2023-02-26T03:54:48;3.87;;;1.90;;
56893;SDS011;43392;50.078;13.704;2023-02-26T03:57:23;3.50;;;1.70;;
56893;SDS011;43392;50.078;13.704;2023-02-26T03:59:55;2.70;;;1.40;;
56893;SDS011;43392;50.078;13.704;2023-02-26T04:02:24;3.80;;;2.03;;
56893;SDS011;43392;50.078;13.704;2023-02-26T04:04:54;4.93;;;2.43;;
56893;SDS011;43392;50.078;13.704;2023-02-26T04:07:24;8.73;;;3.80;;
56893;SDS011;43392;50.078;13.704;2023-02-26T04:09:51;3.40;;;1.70;;
56893;SDS011;43392;50.078;13.704;2023-02-26T04:12:19;4.07;;;1.60;;
56893;SDS011;43392;50.078;13.704;2023-02-26T04:14:47;3.33;;;1.90;;
56893;SDS011;43392;50.078;13.704;2023-02-26T04:17:14;3.97;;;1.80;;
56893;SDS011;43392;50.078;13.704;2023-02-26T04:19:42;4.40;;;1.93;;
56893;SDS011;43392;50.078;13.704;2023-02-26T04:22:09;5.23;;;2.63;;
56893;SDS011;43392;50.078;13.704;2023-02-26T04:24:35;3.50;;;1.80;;
56893;SDS011;43392;50.078;13.704;2023-02-26T04:27:02;4.47;;;2.30;;
56893;SDS011;43392;50.078;13.704;2023-02-26T04:29:29;3.20;;;1.83;;
56893;SDS011;43392;50.078;13.704;2023-02-26T04:31:55;7.03;;;3.20;;
56893;SDS011;43392;50.078;13.704;2023-02-26T04:34:22;5.53;;;2.83;;
56893;SDS011;43392;50.078;13.704;2023-02-26T04:36:50;8.57;;;3.30;;
56893;SDS011;43392;50.078;13.704;2023-02-26T04:39:16;5.47;;;3.33;;
56893;SDS011;43392;50.078;13.704;2023-02-26T04:41:43;4.93;;;2.40;;
56893;SDS011;43392;50.078;13.704;2023-02-26T04:44:10;5.17;;;2.87;;
56893;SDS011;43392;50.078;13.704;2023-02-26T04:46:36;3.60;;;2.00;;
56893;SDS011;43392;50.078;13.704;2023-02-26T04:49:03;2.57;;;1.63;;
56893;SDS011;43392;50.078;13.704;2023-02-26T04:51:30;2.90;;;1.50;;
56893;SDS011;43392;50.078;13.704;2023-02-26T04:53:57;5.30;;;1.70;;
56893;SDS011;43392;50.078;13.704;2023-02-26T04:56:24;4.40;;;1.40;;
56893;SDS011;43392;50.078;13.704;2023-02-26T04:58:51;4.03;;;1.33;;
56893;SDS011;43392;50.078;13.704;2023-02-26T05:01:17;3.67;;;1.50;;
56893;SDS011;43392;50.078;13.704;2023-02-26T05:03:44;2.47;;;1.43;;
56893;SDS011;43392;50.078;13.704;2023-02-26T05:06:10;3.80;;;1.57;;
56893;SDS011;43392;50.078;13.704;2023-02-26T05:08:37;4.00;;;1.50;;
56893;SDS011;43392;50.078;13.704;2023-02-26T05:11:07;2.57;;;1.50;;
56893;SDS011;43392;50.078;13.704;2023-02-26T05:13:34;4.10;;;1.73;;
56893;SDS011;43392;50.078;13.704;2023-02-26T05:16:01;2.63;;;1.50;;
56893;SDS011;43392;50.078;13.704;2023-02-26T05:18:27;3.13;;;1.70;;
56893;SDS011;43392;50.078;13.704;2023-02-26T05:20:54;2.53;;;1.40;;
56893;SDS011;43392;50.078;13.704;2023-02-26T05:23:21;3.20;;;1.90;;
56893;SDS011;43392;50.078;13.704;2023-02-26T05:25:48;3.17;;;1.90;;
56893;SDS011;43392;50.078;13.704;2023-02-26T05:28:19;3.20;;;1.60;;
56893;SDS011;43392;50.078;13.704;2023-02-26T05:30:45;3.93;;;1.87;;
56893;SDS011;43392;50.078;13.704;2023-02-26T05:33:12;3.30;;;1.77;;
56893;SDS011;43392;50.078;13.704;2023-02-26T05:35:38;3.33;;;1.80;;
56893;SDS011;43392;50.078;13.704;2023-02-26T05:38:05;6.17;;;2.33;;
56893;SDS011;43392;50.078;13.704;2023-02-26T05:40:32;3.90;;;2.07;;
56893;SDS011;43392;50.078;13.704;2023-02-26T05:42:58;4.77;;;2.40;;
56893;SDS011;43392;50.078;13.704;2023-02-26T05:45:26;3.87;;;2.00;;
56893;SDS011;43392;50.078;13.704;2023-02-26T05:47:53;3.77;;;2.03;;
56893;SDS011;43392;50.078;13.704;2023-02-26T05:50:19;4.37;;;2.23;;
56893;SDS011;43392;50.078;13.704;2023-02-26T05:52:46;6.93;;;2.40;;
56893;SDS011;43392;50.078;13.704;2023-02-26T05:55:13;4.27;;;2.13;;
56893;SDS011;43392;50.078;13.704;2023-02-26T05:57:40;4.57;;;2.10;;
56893;SDS011;43392;50.078;13.704;2023-02-26T06:00:07;3.33;;;1.90;;
56893;SDS011;43392;50.078;13.704;2023-02-26T06:02:37;5.10;;;2.33;;
56893;SDS011;43392;50.078;13.704;2023-02-26T06:05:04;4.07;;;2.10;;
56893;SDS011;43392;50.078;13.704;2023-02-26T06:07:31;4.40;;;2.23;;
56893;SDS011;43392;50.078;13.704;2023-02-26T06:09:58;6.17;;;3.03;;
56893;SDS011;43392;50.078;13.704;2023-02-26T06:12:24;7.00;;;3.77;;
56893;SDS011;43392;50.078;13.704;2023-02-26T06:14:51;10.17;;;4.33;;
56893;SDS011;43392;50.078;13.704;2023-02-26T06:17:18;7.00;;;4.43;;
56893;SDS011;43392;50.078;13.704;2023-02-26T06:19:45;8.23;;;3.30;;
56893;SDS011;43392;50.078;13.704;2023-02-26T06:22:12;7.23;;;3.30;;
56893;SDS011;43392;50.078;13.704;2023-02-26T06:24:39;7.30;;;2.80;;
56893;SDS011;43392;50.078;13.704;2023-02-26T06:27:05;6.50;;;2.50;;
56893;SDS011;43392;50.078;13.704;2023-02-26T06:29:32;4.13;;;2.00;;
56893;SDS011;43392;50.078;13.704;2023-02-26T06:32:01;5.17;;;2.30;;
56893;SDS011;43392;50.078;13.704;2023-02-26T06:34:28;4.93;;;2.23;;
56893;SDS011;43392;50.078;13.704;2023-02-26T06:36:55;5.63;;;2.37;;
56893;SDS011;43392;50.078;13.704;2023-02-26T06:39:22;6.83;;;2.50;;
56893;SDS011;43392;50.078;13.704;2023-02-26T06:41:49;4.23;;;2.30;;
56893;SDS011;43392;50.078;13.704;2023-02-26T06:44:15;4.43;;;2.10;;
56893;SDS011;43392;50.078;13.704;2023-02-26T06:46:42;5.17;;;2.47;;
56893;SDS011;43392;50.078;13.704;2023-02-26T06:49:09;4.63;;;2.30;;
56893;SDS011;43392;50.078;13.704;2023-02-26T06:51:35;4.77;;;2.50;;
56893;SDS011;43392;50.078;13.704;2023-02-26T06:54:03;4.37;;;2.40;;
56893;SDS011;43392;50.078;13.704;2023-02-26T06:56:30;5.33;;;2.47;;
56893;SDS011;43392;50.078;13.704;2023-02-26T06:58:56;5.07;;;2.53;;
56893;SDS011;43392;50.078;13.704;2023-02-26T07:01:23;4.63;;;2.03;;
56893;SDS011;43392;50.078;13.704;2023-02-26T07:03:51;4.40;;;2.20;;
56893;SDS011;43392;50.078;13.704;2023-02-26T07:06:17;6.30;;;2.70;;
56893;SDS011;43392;50.078;13.704;2023-02-26T07:08:44;5.03;;;2.70;;
56893;SDS011;43392;50.078;13.704;2023-02-26T07:11:12;5.00;;;2.63;;
56893;SDS011;43392;50.078;13.704;2023-02-26T07:13:38;5.33;;;3.10;;
56893;SDS011;43392;50.078;13.704;2023-02-26T07:16:05;6.88;;;2.90;;
56893;SDS011;43392;50.078;13.704;2023-02-26T07:18:32;6.00;;;2.60;;
56893;SDS011;43392;50.078;13.704;2023-02-26T07:20:59;6.00;;;2.83;;
56893;SDS011;43392;50.078;13.704;2023-02-26T07:23:26;4.35;;;2.40;;
56893;SDS011;43392;50.078;13.704;2023-02-26T07:25:53;6.03;;;2.40;;
56893;SDS011;43392;50.078;13.704;2023-02-26T07:28:21;6.65;;;2.80;;
56893;SDS011;43392;50.078;13.704;2023-02-26T07:30:48;3.45;;;2.17;;
56893;SDS011;43392;50.078;13.704;2023-02-26T07:33:14;6.50;;;2.92;;
56893;SDS011;43392;50.078;13.704;2023-02-26T07:35:41;6.50;;;3.10;;
56893;SDS011;43392;50.078;13.704;2023-02-26T07:38:08;5.82;;;2.70;;
56893;SDS011;43392;50.078;13.704;2023-02-26T07:40:34;7.70;;;3.03;;
56893;SDS011;43392;50.078;13.704;2023-02-26T07:43:01;5.68;;;2.80;;
56893;SDS011;43392;50.078;13.704;2023-02-26T07:45:29;6.95;;;3.00;;
56893;SDS011;43392;50.078;13.704;2023-02-26T07:47:55;5.68;;;2.78;;
56893;SDS011;43392;50.078;13.704;2023-02-26T07:50:22;4.28;;;2.45;;
56893;SDS011;43392;50.078;13.704;2023-02-26T07:52:50;8.07;;;2.88;;
56893;SDS011;43392;50.078;13.704;2023-02-26T07:55:17;6.55;;;2.72;;
56893;SDS011;43392;50.078;13.704;2023-02-26T07:57:45;7.35;;;3.28;;
56893;SDS011;43392;50.078;13.704;2023-02-26T08:00:12;4.47;;;2.42;;
56893;SDS011;43392;50.078;13.704;2023-02-26T08:02:41;6.63;;;3.08;;
56893;SDS011;43392;50.078;13.704;2023-02-26T08:05:08;5.63;;;2.53;;
56893;SDS011;43392;50.078;13.704;2023-02-26T08:07:35;6.60;;;2.83;;
56893;SDS011;43392;50.078;13.704;2023-02-26T08:10:02;5.90;;;2.72;;
56893;SDS011;43392;50.078;13.704;2023-02-26T08:12:29;6.15;;;3.10;;
56893;SDS011;43392;50.078;13.704;2023-02-26T08:14:57;5.43;;;2.50;;
56893;SDS011;43392;50.078;13.704;2023-02-26T08:17:23;6.20;;;2.90;;
56893;SDS011;43392;50.078;13.704;2023-02-26T08:19:51;7.28;;;2.83;;
56893;SDS011;43392;50.078;13.704;2023-02-26T08:22:18;3.83;;;2.28;;
56893;SDS011;43392;50.078;13.704;2023-02-26T08:24:44;7.00;;;3.13;;
56893;SDS011;43392;50.078;13.704;2023-02-26T08:27:11;5.78;;;2.80;;
56893;SDS011;43392;50.078;13.704;2023-02-26T08:29:38;5.13;;;2.55;;
56893;SDS011;43392;50.078;13.704;2023-02-26T08:32:04;5.03;;;2.38;;
56893;SDS011;43392;50.078;13.704;2023-02-26T08:34:31;5.45;;;2.58;;
56893;SDS011;43392;50.078;13.704;2023-02-26T08:36:59;6.22;;;2.42;;
56893;SDS011;43392;50.078;13.704;2023-02-26T08:39:25;5.40;;;2.80;;
56893;SDS011;43392;50.078;13.704;2023-02-26T08:41:52;7.47;;;2.80;;
56893;SDS011;43392;50.078;13.704;2023-02-26T08:44:18;7.45;;;3.33;;
56893;SDS011;43392;50.078;13.704;2023-02-26T08:46:45;8.27;;;3.08;;
56893;SDS011;43392;50.078;13.704;2023-02-26T08:49:11;6.00;;;2.78;;
56893;SDS011;43392;50.078;13.704;2023-02-26T08:51:38;6.72;;;2.70;;
56893;SDS011;43392;50.078;13.704;2023-02-26T08:54:06;4.50;;;2.47;;
56893;SDS011;43392;50.078;13.704;2023-02-26T08:56:33;5.90;;;2.55;;
56893;SDS011;43392;50.078;13.704;2023-02-26T08:59:00;6.50;;;3.10;;
56893;SDS011;43392;50.078;13.704;2023-02-26T09:01:26;7.53;;;2.63;;
56893;SDS011;43392;50.078;13.704;2023-02-26T09:03:53;6.53;;;2.63;;
56893;SDS011;43392;50.078;13.704;2023-02-26T09:06:20;4.15;;;2.13;;
56893;SDS011;43392;50.078;13.704;2023-02-26T09:08:46;5.57;;;2.17;;
56893;SDS011;43392;50.078;13.704;2023-02-26T09:11:14;4.72;;;2.40;;
56893;SDS011;43392;50.078;13.704;2023-02-26T09:13:41;4.82;;;2.05;;
56893;SDS011;43392;50.078;13.704;2023-02-26T09:16:08;4.78;;;2.45;;
56893;SDS011;43392;50.078;13.704;2023-02-26T09:18:36;4.55;;;2.75;;
56893;SDS011;43392;50.078;13.704;2023-02-26T09:21:02;7.18;;;2.70;;
56893;SDS011;43392;50.078;13.704;2023-02-26T09:23:29;8.23;;;2.83;;
56893;SDS011;43392;50.078;13.704;2023-02-26T09:25:56;6.10;;;2.72;;
56893;SDS011;43392;50.078;13.704;2023-02-26T09:28:24;6.97;;;2.90;;
56893;SDS011;43392;50.078;13.704;2023-02-26T09:30:51;7.00;;;3.03;;
56893;SDS011;43392;50.078;13.704;2023-02-26T09:33:21;5.88;;;2.50;;
56893;SDS011;43392;50.078;13.704;2023-02-26T09:35:48;6.07;;;2.75;;
56893;SDS011;43392;50.078;13.704;2023-02-26T09:38:16;7.05;;;2.65;;
56893;SDS011;43392;50.078;13.704;2023-02-26T09:40:45;6.68;;;2.90;;
56893;SDS011;43392;50.078;13.704;2023-02-26T09:43:20;7.15;;;2.92;;
56893;SDS011;43392;50.078;13.704;2023-02-26T09:46:00;5.13;;;2.53;;
56893;SDS011;43392;50.078;13.704;2023-02-26T09:48:30;6.53;;;2.60;;
56893;SDS011;43392;50.078;13.704;2023-02-26T09:51:00;5.55;;;2.67;;
56893;SDS011;43392;50.078;13.704;2023-02-26T09:53:27;5.65;;;2.20;;
56893;SDS011;43392;50.078;13.704;2023-02-26T09:55:57;7.20;;;2.38;;
56893;SDS011;43392;50.078;13.704;2023-02-26T09:58:31;5.03;;;2.50;;
56893;SDS011;43392;50.078;13.704;2023-02-26T10:01:03;3.00;;;2.00;;
56893;SDS011;43392;50.078;13.704;2023-02-26T10:03:37;7.13;;;2.45;;
56893;SDS011;43392;50.078;13.704;2023-02-26T10:06:17;5.30;;;2.40;;
56893;SDS011;43392;50.078;13.704;2023-02-26T10:08:51;4.95;;;2.22;;
56893;SDS011;43392;50.078;13.704;2023-02-26T10:11:42;7.10;;;2.63;;
56893;SDS011;43392;50.078;13.704;2023-02-26T10:14:19;4.25;;;2.30;;
56893;SDS011;43392;50.078;13.704;2023-02-26T10:16:50;5.65;;;2.83;;
56893;SDS011;43392;50.078;13.704;2023-02-26T10:21:51;5.15;;;2.95;;
56893;SDS011;43392;50.078;13.704;2023-02-26T10:24:23;4.13;;;2.30;;
56893;SDS011;43392;50.078;13.704;2023-02-26T10:26:56;6.22;;;2.75;;
56893;SDS011;43392;50.078;13.704;2023-02-26T10:29:35;5.95;;;2.45;;
56893;SDS011;43392;50.078;13.704;2023-02-26T10:34:43;5.65;;;2.50;;
56893;SDS011;43392;50.078;13.704;2023-02-26T10:37:17;5.50;;;2.25;;
56893;SDS011;43392;50.078;13.704;2023-02-26T10:39:47;6.07;;;2.40;;
56893;SDS011;43392;50.078;13.704;2023-02-26T10:42:19;5.15;;;2.45;;
56893;SDS011;43392;50.078;13.704;2023-02-26T10:44:54;5.28;;;2.30;;
56893;SDS011;43392;50.078;13.704;2023-02-26T10:47:34;8.20;;;1.95;;
56893;SDS011;43392;50.078;13.704;2023-02-26T10:50:08;3.05;;;2.00;;
56893;SDS011;43392;50.078;13.704;2023-02-26T10:52:37;5.78;;;2.60;;
56893;SDS011;43392;50.078;13.704;2023-02-26T10:55:19;6.07;;;2.00;;
56893;SDS011;43392;50.078;13.704;2023-02-26T10:57:57;5.63;;;2.10;;
56893;SDS011;43392;50.078;13.704;2023-02-26T11:00:30;4.93;;;2.47;;
56893;SDS011;43392;50.078;13.704;2023-02-26T11:02:59;3.35;;;2.03;;
56893;SDS011;43392;50.078;13.704;2023-02-26T11:05:28;4.05;;;2.08;;
56893;SDS011;43392;50.078;13.704;2023-02-26T11:07:57;6.68;;;2.28;;
56893;SDS011;43392;50.078;13.704;2023-02-26T11:10:38;4.47;;;2.45;;
56893;SDS011;43392;50.078;13.704;2023-02-26T11:13:07;3.72;;;2.35;;
56893;SDS011;43392;50.078;13.704;2023-02-26T11:15:35;6.43;;;2.13;;
56893;SDS011;43392;50.078;13.704;2023-02-26T11:18:03;4.63;;;2.40;;
56893;SDS011;43392;50.078;13.704;2023-02-26T11:20:32;4.55;;;2.60;;
56893;SDS011;43392;50.078;13.704;2023-02-26T11:23:01;6.00;;;2.75;;
56893;SDS011;43392;50.078;13.704;2023-02-26T11:25:30;4.50;;;2.58;;
56893;SDS011;43392;50.078;13.704;2023-02-26T11:28:00;5.72;;;2.30;;
56893;SDS011;43392;50.078;13.704;2023-02-26T11:30:30;4.57;;;2.17;;
56893;SDS011;43392;50.078;13.704;2023-02-26T11:33:05;7.28;;;2.50;;
56893;SDS011;43392;50.078;13.704;2023-02-26T11:35:41;5.25;;;2.67;;
56893;SDS011;43392;50.078;13.704;2023-02-26T11:38:09;4.80;;;2.67;;
56893;SDS011;43392;50.078;13.704;2023-02-26T11:40:45;7.40;;;3.03;;
56893;SDS011;43392;50.078;13.704;2023-02-26T11:43:14;6.80;;;2.85;;
56893;SDS011;43392;50.078;13.704;2023-02-26T11:45:43;5.53;;;2.75;;
56893;SDS011;43392;50.078;13.704;2023-02-26T11:48:14;4.63;;;2.70;;
56893;SDS011;43392;50.078;13.704;2023-02-26T11:50:45;7.07;;;2.95;;
56893;SDS011;43392;50.078;13.704;2023-02-26T11:53:18;4.72;;;2.30;;
56893;SDS011;43392;50.078;13.704;2023-02-26T11:55:50;5.45;;;3.03;;
56893;SDS011;43392;50.078;13.704;2023-02-26T11:58:18;5.13;;;2.85;;
56893;SDS011;43392;50.078;13.704;2023-02-26T12:00:47;5.50;;;2.30;;
56893;SDS011;43392;50.078;13.704;2023-02-26T12:03:17;5.38;;;2.55;;
56893;SDS011;43392;50.078;13.704;2023-02-26T12:05:45;4.25;;;2.22;;
56893;SDS011;43392;50.078;13.704;2023-02-26T12:08:15;6.53;;;2.78;;
56893;SDS011;43392;50.078;13.704;2023-02-26T12:10:47;5.05;;;2.60;;
56893;SDS011;43392;50.078;13.704;2023-02-26T12:13:26;4.25;;;2.72;;
56893;SDS011;43392;50.078;13.704;2023-02-26T12:16:01;3.88;;;2.38;;
56893;SDS011;43392;50.078;13.704;2023-02-26T12:18:41;5.40;;;2.40;;
56893;SDS011;43392;50.078;13.704;2023-02-26T12:21:18;6.45;;;2.90;;
56893;SDS011;43392;50.078;13.704;2023-02-26T12:23:59;5.55;;;2.60;;
56893;SDS011;43392;50.078;13.704;2023-02-26T12:26:41;4.20;;;2.28;;
56893;SDS011;43392;50.078;13.704;2023-02-26T12:29:28;5.55;;;2.85;;
56893;SDS011;43392;50.078;13.704;2023-02-26T12:38:20;5.60;;;3.05;;
56893;SDS011;43392;50.078;13.704;2023-02-26T12:43:56;5.93;;;2.50;;
56893;SDS011;43392;50.078;13.704;2023-02-26T12:46:49;5.72;;;2.97;;
56893;SDS011;43392;50.078;13.704;2023-02-26T12:49:36;4.20;;;2.53;;
56893;SDS011;43392;50.078;13.704;2023-02-26T12:52:18;5.85;;;2.50;;
56893;SDS011;43392;50.078;13.704;2023-02-26T12:55:01;5.18;;;2.28;;
56893;SDS011;43392;50.078;13.704;2023-02-26T12:57:44;5.22;;;2.50;;
56893;SDS011;43392;50.078;13.704;2023-02-26T13:00:25;5.35;;;2.83;;
56893;SDS011;43392;50.078;13.704;2023-02-26T13:03:15;4.78;;;2.30;;
56893;SDS011;43392;50.078;13.704;2023-02-26T13:06:20;6.38;;;2.50;;
56893;SDS011;43392;50.078;13.704;2023-02-26T13:08:59;6.85;;;2.88;;
56893;SDS011;43392;50.078;13.704;2023-02-26T13:11:42;6.78;;;2.70;;
56893;SDS011;43392;50.078;13.704;2023-02-26T13:14:21;5.88;;;2.40;;
56893;SDS011;43392;50.078;13.704;2023-02-26T13:16:57;4.03;;;1.70;;
56893;SDS011;43392;50.078;13.704;2023-02-26T13:19:32;8.13;;;1.90;;
56893;SDS011;43392;50.078;13.704;2023-02-26T13:22:11;6.35;;;2.28;;
56893;SDS011;43392;50.078;13.704;2023-02-26T13:24:43;4.03;;;1.90;;
56893;SDS011;43392;50.078;13.704;2023-02-26T13:27:15;4.75;;;2.15;;
56893;SDS011;43392;50.078;13.704;2023-02-26T13:29:44;4.90;;;2.30;;
56893;SDS011;43392;50.078;13.704;2023-02-26T13:32:15;8.05;;;2.72;;
56893;SDS011;43392;50.078;13.704;2023-02-26T13:34:47;4.28;;;1.92;;
56893;SDS011;43392;50.078;13.704;2023-02-26T13:37:20;4.25;;;2.10;;
56893;SDS011;43392;50.078;13.704;2023-02-26T13:39:51;3.95;;;1.85;;
56893;SDS011;43392;50.078;13.704;2023-02-26T13:42:32;5.15;;;1.67;;
56893;SDS011;43392;50.078;13.704;2023-02-26T13:48:03;4.10;;;1.90;;
56893;SDS011;43392;50.078;13.704;2023-02-26T13:50:39;5.00;;;1.85;;
56893;SDS011;43392;50.078;13.704;2023-02-26T13:53:33;5.35;;;1.67;;
56893;SDS011;43392;50.078;13.704;2023-02-26T13:56:16;5.60;;;1.63;;
56893;SDS011;43392;50.078;13.704;2023-02-26T13:58:48;3.90;;;1.60;;
56893;SDS011;43392;50.078;13.704;2023-02-26T14:01:32;7.10;;;2.10;;
56893;SDS011;43392;50.078;13.704;2023-02-26T14:04:07;3.80;;;1.95;;
56893;SDS011;43392;50.078;13.704;2023-02-26T14:06:50;5.18;;;2.00;;
56893;SDS011;43392;50.078;13.704;2023-02-26T14:18:18;5.72;;;1.90;;
56893;SDS011;43392;50.078;13.704;2023-02-26T14:20:50;3.70;;;2.20;;
56893;SDS011;43392;50.078;13.704;2023-02-26T14:26:03;4.40;;;1.92;;
56893;SDS011;43392;50.078;13.704;2023-02-26T14:28:41;3.90;;;1.80;;
56893;SDS011;43392;50.078;13.704;2023-02-26T14:31:15;5.43;;;2.08;;
56893;SDS011;43392;50.078;13.704;2023-02-26T14:33:44;5.80;;;2.30;;
56893;SDS011;43392;50.078;13.704;2023-02-26T14:36:17;5.63;;;2.50;;
56893;SDS011;43392;50.078;13.704;2023-02-26T14:38:49;4.28;;;2.10;;
56893;SDS011;43392;50.078;13.704;2023-02-26T14:41:23;7.72;;;2.20;;
56893;SDS011;43392;50.078;13.704;2023-02-26T14:43:55;3.35;;;1.75;;
56893;SDS011;43392;50.078;13.704;2023-02-26T14:46:27;6.38;;;2.40;;
56893;SDS011;43392;50.078;13.704;2023-02-26T14:48:54;4.97;;;2.03;;
56893;SDS011;43392;50.078;13.704;2023-02-26T14:51:23;8.18;;;2.60;;
56893;SDS011;43392;50.078;13.704;2023-02-26T14:54:05;4.43;;;1.90;;
56893;SDS011;43392;50.078;13.704;2023-02-26T14:56:51;6.07;;;2.17;;
56893;SDS011;43392;50.078;13.704;2023-02-26T14:59:39;4.90;;;2.17;;
56893;SDS011;43392;50.078;13.704;2023-02-26T15:02:24;7.10;;;2.05;;
56893;SDS011;43392;50.078;13.704;2023-02-26T15:07:58;6.50;;;2.78;;
56893;SDS011;43392;50.078;13.704;2023-02-26T15:10:45;4.47;;;2.22;;
56893;SDS011;43392;50.078;13.704;2023-02-26T15:16:31;4.80;;;2.42;;
56893;SDS011;43392;50.078;13.704;2023-02-26T15:19:11;4.82;;;1.98;;
56893;SDS011;43392;50.078;13.704;2023-02-26T15:21:50;4.88;;;2.05;;
56893;SDS011;43392;50.078;13.704;2023-02-26T15:24:27;4.00;;;1.70;;
56893;SDS011;43392;50.078;13.704;2023-02-26T15:26:56;4.05;;;1.83;;
56893;SDS011;43392;50.078;13.704;2023-02-26T15:29:27;3.80;;;1.75;;
56893;SDS011;43392;50.078;13.704;2023-02-26T15:31:56;6.05;;;1.95;;
56893;SDS011;43392;50.078;13.704;2023-02-26T15:34:26;5.43;;;2.10;;
56893;SDS011;43392;50.078;13.704;2023-02-26T15:36:55;3.47;;;1.85;;
56893;SDS011;43392;50.078;13.704;2023-02-26T15:39:23;7.03;;;2.00;;